createdAt,value
2022-09-16T00:00:27.891Z,258.33
2022-09-16T00:10:32.931Z,258.77
2022-09-16T00:20:36.712Z,248.30
2022-09-16T00:30:42.113Z,242.67
2022-09-16T00:40:47.181Z,251.63
2022-09-16T00:50:56.724Z,252.43
2022-09-16T01:01:00.882Z,243.17
2022-09-16T01:11:07.437Z,254.70
2022-09-16T01:21:31.574Z,254.83
2022-09-16T01:31:42.147Z,255.53
2022-09-16T01:42:02.229Z,251.30
2022-09-16T01:52:21.979Z,251.73
2022-09-16T02:02:32.163Z,249.13
2022-09-16T02:12:42.723Z,244.77
2022-09-16T02:22:51.251Z,246.87
2022-09-16T02:33:01.927Z,246.43
2022-09-16T02:43:06.056Z,242.07
2022-09-16T02:53:22.259Z,247.93
2022-09-16T03:03:26.042Z,262.03
2022-09-16T03:13:41.045Z,247.10
2022-09-16T03:23:51.530Z,240.63
2022-09-16T03:34:06.582Z,245.50
2022-09-16T03:44:10.342Z,242.40
2022-09-16T03:54:15.379Z,235.93
2022-09-16T04:04:19.002Z,235.93
2022-09-16T04:14:24.211Z,235.97
2022-09-16T04:24:28.077Z,236.10
2022-09-16T04:34:33.803Z,248.80
2022-09-16T04:44:37.611Z,241.10
2022-09-16T04:54:42.769Z,245.07
2022-09-16T05:04:46.438Z,241.27
2022-09-16T05:14:51.639Z,246.17
2022-09-16T05:24:55.410Z,248.20
2022-09-16T05:35:00.763Z,251.23
2022-09-16T05:45:04.998Z,246.13
2022-09-16T05:55:10.816Z,237.50
2022-09-16T06:05:14.774Z,260.40
2022-09-16T06:15:19.839Z,249.70
2022-09-16T06:25:23.811Z,259.07
2022-09-16T06:35:29.181Z,248.17
2022-09-16T06:45:32.835Z,247.63
2022-09-16T06:55:37.569Z,261.23
2022-09-16T07:05:41.301Z,270.97
2022-09-16T07:16:11.924Z,270.90
2022-09-16T07:26:15.602Z,277.63
2022-09-16T07:36:24.034Z,293.60
2022-09-16T07:46:31.537Z,283.27
2022-09-16T07:56:39.409Z,274.90
2022-09-16T08:06:43.123Z,285.20
2022-09-16T08:16:51.489Z,275.63
2022-09-16T08:37:01.184Z,282.13
2022-09-16T08:47:10.738Z,284.37
2022-09-16T08:57:21.009Z,298.10
2022-09-16T09:07:42.229Z,295.63
2022-09-16T09:18:03.244Z,272.57
2022-09-16T09:28:28.863Z,279.33
2022-09-16T09:39:01.593Z,270.80
2022-09-16T09:49:13.589Z,275.77
2022-09-16T09:59:28.439Z,271.97
2022-09-16T10:09:32.408Z,279.10
2022-09-16T10:19:52.284Z,287.67
2022-09-16T10:30:15.353Z,278.40
2022-09-16T10:40:23.441Z,290.73
2022-09-16T10:50:28.316Z,278.65
2022-09-16T11:00:45.609Z,307.60
2022-09-16T11:10:58.890Z,317.27
2022-09-16T11:21:36.520Z,339.35
2022-09-16T11:31:52.567Z,331.77
2022-09-16T11:42:14.066Z,338.85
2022-09-16T11:52:37.003Z,267.30
2022-09-16T12:02:50.804Z,255.65
2022-09-16T12:13:01.944Z,236.02
2022-09-16T12:23:15.285Z,250.77
2022-09-16T12:33:24.060Z,321.55
2022-09-16T12:44:23.360Z,335.92
2022-09-16T12:55:23.804Z,377.17
2022-09-16T13:05:33.450Z,364.20
2022-09-16T13:15:41.370Z,296.60
2022-09-16T13:25:52.528Z,296.23
2022-09-16T13:36:31.777Z,288.90
2022-09-16T13:46:39.506Z,295.57
2022-09-16T13:56:56.044Z,287.90
2022-09-16T14:07:16.694Z,289.57
2022-09-16T14:17:25.138Z,301.00
2022-09-16T14:27:34.171Z,299.73
2022-09-16T14:37:40.205Z,304.87
2022-09-16T14:47:51.727Z,299.73
2022-09-16T14:57:55.961Z,306.10
2022-09-16T15:08:14.454Z,291.10
2022-09-16T15:18:25.450Z,299.90
2022-09-16T15:28:30.807Z,300.43
2022-09-16T15:38:34.476Z,301.47
2022-09-16T15:48:46.287Z,312.83
2022-09-16T15:58:53.464Z,309.27
2022-09-16T16:08:59.306Z,285.27
2022-09-16T16:19:05.123Z,301.87
2022-09-16T16:29:10.271Z,273.90
2022-09-16T16:39:13.986Z,272.10
2022-09-16T16:49:19.502Z,250.53
2022-09-16T16:59:23.808Z,257.07
2022-09-16T17:09:29.175Z,246.80
2022-09-16T17:19:33.150Z,242.57
2022-09-16T17:29:38.232Z,248.47
2022-09-16T17:39:42.605Z,241.73
2022-09-16T17:49:47.793Z,247.97
2022-09-16T17:59:51.420Z,246.20
2022-09-16T18:09:56.689Z,252.27
2022-09-16T18:20:04.927Z,252.00
2022-09-16T18:30:13.682Z,267.03
2022-09-16T18:40:17.658Z,273.87
2022-09-16T18:50:22.716Z,278.33
2022-09-16T19:00:26.177Z,261.40
2022-09-16T19:10:31.226Z,286.27
2022-09-16T19:20:34.947Z,283.23
2022-09-16T19:30:39.880Z,292.53
2022-09-16T19:40:44.068Z,298.10
2022-09-16T19:50:54.013Z,264.90
2022-09-16T20:01:02.469Z,268.67
2022-09-16T20:11:10.438Z,262.67
2022-09-16T20:21:16.600Z,277.07
2022-09-16T20:31:24.940Z,264.70
2022-09-16T20:41:31.340Z,275.47
2022-09-16T20:51:36.563Z,279.03
2022-09-16T21:01:42.484Z,268.10
2022-09-16T21:11:47.896Z,278.00
2022-09-16T21:21:51.654Z,255.13
2022-09-16T21:31:57.592Z,254.13
2022-09-16T21:42:01.844Z,266.90
2022-09-16T21:52:06.788Z,256.17
2022-09-16T22:02:10.704Z,257.50
2022-09-16T22:12:15.773Z,252.57
2022-09-16T22:22:19.213Z,236.13
2022-09-16T22:32:24.303Z,240.37
2022-09-16T22:42:28.108Z,243.67
2022-09-16T22:52:33.892Z,250.20
2022-09-16T23:02:37.851Z,239.80
2022-09-16T23:12:43.270Z,233.07
2022-09-16T23:22:47.041Z,241.10
2022-09-16T23:32:52.348Z,242.07
2022-09-16T23:42:56.421Z,241.00
2022-09-16T23:53:01.557Z,234.20
